Time;durP1;ratioP1;P1;durP2;ratioP2;P2;SDS_P1;SDS_P2;PMS_P1;PMS_P2;Temp;Humidity;BMP_temperature;BMP_pressure;BME280_temperature;BME280_humidity;BME280_pressure;Samples;Min_cycle;Max_cycle;Signal;HPM_P1;HPM_P2
2021/01/07 00:02:15;;;;;;;5.43;3.07;;;;;;;0.26;100.00;100566.47;1820876;78;20992;-67
2021/01/07 00:04:43;;;;;;;2.60;2.30;;;;;;;0.25;100.00;100574.08;1820912;78;21024;-67
2021/01/07 00:07:11;;;;;;;1.80;1.57;;;;;;;0.27;100.00;100583.30;1820916;78;21246;-67
2021/01/07 00:09:41;;;;;;;2.03;1.83;;;;;;;0.26;100.00;100580.25;1820782;78;20989;-68
2021/01/07 00:12:09;;;;;;;1.70;1.60;;;;;;;0.25;100.00;100573.20;1820837;78;20953;-67
2021/01/07 00:14:37;;;;;;;1.50;0.97;;;;;;;0.26;100.00;100568.28;1820881;78;21032;-68
2021/01/07 00:17:05;;;;;;;2.63;1.90;;;;;;;0.25;100.00;100558.13;1781754;80;21005;-68
2021/01/07 00:19:32;;;;;;;3.20;2.53;;;;;;;0.23;100.00;100562.69;1781975;80;21286;-67
2021/01/07 00:22:00;;;;;;;4.93;2.30;;;;;;;0.22;100.00;100562.29;1781893;80;21029;-67
2021/01/07 00:24:28;;;;;;;3.30;1.43;;;;;;;0.17;100.00;100564.36;1781970;80;21060;-67
2021/01/07 00:26:56;;;;;;;3.77;2.30;;;;;;;0.16;100.00;100563.97;1781968;80;21009;-67
2021/01/07 00:29:24;;;;;;;2.67;1.47;;;;;;;0.12;100.00;100564.62;1781889;80;21040;-67
2021/01/07 00:31:51;;;;;;;0.53;0.53;;;;;;;0.09;100.00;100562.63;1781912;80;21208;-67
2021/01/07 00:34:21;;;;;;;1.50;1.40;;;;;;;0.09;100.00;100558.63;1820926;78;21001;-68
2021/01/07 00:36:58;;;;;;;1.27;1.20;;;;;;;0.10;100.00;100559.03;1781952;80;21693;-67
2021/01/07 00:39:26;;;;;;;4.67;2.13;;;;;;;0.10;100.00;100553.71;1781838;80;20930;-66
2021/01/07 00:41:59;;;;;;;2.67;2.20;;;;;;;0.10;100.00;100560.36;1781928;80;21005;-67
2021/01/07 00:44:27;;;;;;;;;;;;;;;0.12;100.00;100558.46;1784609;80;21126;-67
2021/01/07 00:46:55;;;;;;;2.77;2.37;;;;;;;0.12;100.00;100556.65;1749285;80;20114;-66
2021/01/07 00:49:23;;;;;;;1.97;1.40;;;;;;;0.11;100.00;100551.45;1820862;78;20977;-67
2021/01/07 00:51:52;;;;;;;0.83;0.80;;;;;;;0.08;100.00;100548.97;1820816;78;21174;-67
2021/01/07 00:54:22;;;;;;;1.43;0.90;;;;;;;0.08;100.00;100544.98;1820776;78;21032;-67
2021/01/07 00:56:50;;;;;;;1.17;1.00;;;;;;;0.09;100.00;100544.01;1820904;78;21324;-67
2021/01/07 00:59:21;;;;;;;2.90;1.17;;;;;;;0.13;100.00;100541.57;1825746;78;21032;-67
2021/01/07 01:01:49;;;;;;;2.40;1.23;;;;;;;0.15;100.00;100547.16;1837689;78;20973;-68
2021/01/07 01:04:17;;;;;;;4.63;2.57;;;;;;;0.18;100.00;100548.80;1837788;78;21017;-67
2021/01/07 01:06:45;;;;;;;3.93;1.83;;;;;;;0.21;100.00;100545.94;1837731;78;21045;-67
2021/01/07 01:09:13;;;;;;;1.07;0.63;;;;;;;0.24;100.00;100535.60;1837709;78;21196;-68
2021/01/07 01:11:43;;;;;;;0.87;0.83;;;;;;;0.26;100.00;100533.22;1832816;78;21024;-67
2021/01/07 01:14:14;;;;;;;1.13;0.87;;;;;;;0.29;100.00;100532.19;1827257;78;21683;-68
2021/01/07 01:16:43;;;;;;;1.60;1.50;;;;;;;0.32;100.00;100518.23;1748161;81;21100;-67
2021/01/07 01:19:11;;;;;;;2.03;1.47;;;;;;;0.34;100.00;100529.63;1748336;82;21164;-67
2021/01/07 01:21:39;;;;;;;2.47;1.60;;;;;;;0.37;100.00;100524.58;1774349;80;21640;-67
2021/01/07 01:24:08;;;;;;;1.67;1.43;;;;;;;0.40;100.00;100520.89;1786264;80;21065;-67
2021/01/07 01:26:36;;;;;;;7.87;3.23;;;;;;;0.42;100.00;100525.16;1786365;80;20969;-67
2021/01/07 01:29:04;;;;;;;3.70;2.47;;;;;;;0.44;100.00;100513.09;1786329;80;21105;-67
2021/01/07 01:31:37;;;;;;;2.53;1.73;;;;;;;0.44;100.00;100505.95;1786446;80;21555;-68
2021/01/07 01:34:07;;;;;;;4.23;2.23;;;;;;;0.46;100.00;100508.08;1783471;80;21375;-67
2021/01/07 01:36:42;;;;;;;2.43;1.40;;;;;;;0.52;100.00;100502.36;1868043;76;26426;-67
2021/01/07 01:39:11;;;;;;;2.70;1.60;;;;;;;0.52;100.00;100498.85;1835076;78;20928;-67
2021/01/07 01:41:45;;;;;;;4.03;2.00;;;;;;;0.54;100.00;100499.61;1834996;77;21360;-67
2021/01/07 01:44:14;;;;;;;5.57;3.00;;;;;;;0.56;100.00;100502.53;1789142;80;21540;-67
2021/01/07 01:46:42;;;;;;;6.20;2.33;;;;;;;0.57;100.00;100499.42;1770990;80;21019;-67
2021/01/07 01:51:48;;;;;;;2.83;1.87;;;;;;;0.64;100.00;100495.42;1845286;76;26261;-67
2021/01/07 01:54:16;;;;;;;2.77;1.57;;;;;;;0.62;100.00;100501.78;1810438;78;20913;-67
2021/01/07 01:56:46;;;;;;;1.00;0.87;;;;;;;0.66;100.00;100500.66;1815190;79;21364;-67
2021/01/07 01:59:14;;;;;;;3.57;1.90;;;;;;;0.70;100.00;100499.50;1815187;79;21051;-67
2021/01/07 02:01:43;;;;;;;2.77;1.40;;;;;;;0.72;100.00;100494.45;1784440;79;20992;-67
2021/01/07 02:04:10;;;;;;;1.57;1.47;;;;;;;0.77;100.00;100491.50;1815213;79;20965;-68
2021/01/07 02:06:39;;;;;;;3.53;2.37;;;;;;;0.82;100.00;100495.22;1815252;79;21525;-68
2021/01/07 02:09:07;;;;;;;2.77;1.87;;;;;;;0.86;100.00;100487.41;1815328;79;21371;-68
2021/01/07 02:11:35;;;;;;;4.57;2.50;;;;;;;0.88;100.00;100485.02;1814952;79;20980;-68
2021/01/07 02:14:03;;;;;;;3.33;1.83;;;;;;;0.91;100.00;100484.82;1784179;79;20928;-67
2021/01/07 02:16:31;;;;;;;3.27;2.00;;;;;;;0.95;100.00;100488.14;1815170;79;20925;-67
2021/01/07 02:18:59;;;;;;;2.20;1.37;;;;;;;0.97;100.00;100492.89;1815185;79;20960;-68
2021/01/07 02:21:27;;;;;;;1.80;0.97;;;;;;;0.99;100.00;100490.12;1815229;79;21362;-67
2021/01/07 02:23:55;;;;;;;3.03;1.90;;;;;;;1.02;100.00;100486.80;1815188;79;20996;-67
2021/01/07 02:26:23;;;;;;;4.67;2.23;;;;;;;1.08;100.00;100489.53;1815226;78;20996;-68
2021/01/07 02:28:51;;;;;;;3.00;1.73;;;;;;;1.12;100.00;100481.25;1815190;79;20996;-67
2021/01/07 02:31:20;;;;;;;5.87;2.37;;;;;;;1.17;100.00;100476.09;1815278;79;21035;-68
2021/01/07 02:33:47;;;;;;;6.27;3.33;;;;;;;1.22;100.00;100469.53;1815187;79;21192;-67
2021/01/07 02:36:16;;;;;;;5.40;3.27;;;;;;;1.27;100.00;100472.73;1815180;79;20944;-67
2021/01/07 02:38:45;;;;;;;10.93;4.40;;;;;;;1.30;100.00;100472.53;1815151;77;20885;-68
2021/01/07 02:41:13;;;;;;;5.87;3.27;;;;;;;1.34;100.00;100478.52;1815095;79;20972;-67
2021/01/07 02:43:41;;;;;;;7.30;2.93;;;;;;;1.35;100.00;100474.91;1815280;79;21043;-66
2021/01/07 02:46:09;;;;;;;5.27;2.37;;;;;;;1.38;100.00;100476.05;1815171;78;21201;-68
2021/01/07 02:48:37;;;;;;;1.03;1.03;;;;;;;1.41;100.00;100470.48;1815065;79;20991;-67
2021/01/07 02:51:04;;;;;;;1.47;1.27;;;;;;;1.45;100.00;100470.69;1827005;78;20983;-67
2021/01/07 02:53:34;;;;;;;3.50;1.53;;;;;;;1.49;100.00;100477.99;1835741;78;21003;-68
2021/01/07 02:56:03;;;;;;;2.00;1.77;;;;;;;1.53;100.00;100474.64;1835815;77;20983;-66
2021/01/07 02:58:32;;;;;;;4.23;2.57;;;;;;;1.57;100.00;100474.80;1831601;78;22414;-67
2021/01/07 03:01:01;;;;;;;2.50;1.60;;;;;;;1.58;100.00;100472.04;1835571;78;20992;-67
2021/01/07 03:03:28;;;;;;;6.00;2.20;;;;;;;1.60;100.00;100477.27;1835239;78;20983;-68
2021/01/07 03:05:57;;;;;;;9.50;4.10;;;;;;;1.63;100.00;100468.59;1835186;78;21041;-67
2021/01/07 03:08:25;;;;;;;7.90;3.47;;;;;;;1.66;100.00;100463.52;1835189;78;20960;-67
2021/01/07 03:10:54;;;;;;;6.93;3.50;;;;;;;1.68;100.00;100456.27;1830775;78;21132;-67
2021/01/07 03:13:22;;;;;;;4.13;2.63;;;;;;;1.69;100.00;100455.32;1802275;79;21020;-67
2021/01/07 03:15:49;;;;;;;2.03;1.83;;;;;;;1.73;100.00;100452.81;1802284;79;21016;-67
2021/01/07 03:18:17;;;;;;;4.23;2.30;;;;;;;1.76;100.00;100448.61;1802293;79;20937;-67
2021/01/07 03:20:45;;;;;;;5.23;2.80;;;;;;;1.78;100.00;100448.02;1802357;79;21019;-67
2021/01/07 03:23:13;;;;;;;5.83;2.60;;;;;;;1.79;100.00;100447.53;1802373;79;21335;-68
2021/01/07 03:25:41;;;;;;;7.60;2.90;;;;;;;1.80;100.00;100446.10;1802236;79;20972;-68
2021/01/07 03:28:09;;;;;;;7.27;3.33;;;;;;;1.82;100.00;100450.00;1802386;79;21047;-67
2021/01/07 03:30:37;;;;;;;8.70;2.57;;;;;;;1.85;100.00;100447.13;1802168;79;20925;-68
2021/01/07 03:33:05;;;;;;;5.13;2.97;;;;;;;1.89;100.00;100449.50;1802400;78;21023;-68
2021/01/07 03:35:33;;;;;;;1.40;1.30;;;;;;;1.92;100.00;100453.75;1802315;79;21610;-67
2021/01/07 03:38:01;;;;;;;1.60;1.50;;;;;;;1.96;100.00;100458.39;1802252;79;20992;-67
2021/01/07 03:40:29;;;;;;;4.00;2.10;;;;;;;1.98;100.00;100459.14;1802428;79;21064;-67
2021/01/07 03:42:57;;;;;;;3.37;2.17;;;;;;;2.02;100.00;100447.28;1802356;78;20932;-68
2021/01/07 03:45:25;;;;;;;4.20;2.23;;;;;;;2.05;100.00;100451.08;1809626;77;20989;-67
2021/01/07 03:47:54;;;;;;;4.00;2.23;;;;;;;2.09;100.00;100453.93;1835159;78;21343;-67
2021/01/07 03:50:22;;;;;;;9.67;4.17;;;;;;;2.15;100.00;100447.31;1834899;78;21070;-67
2021/01/07 03:52:50;;;;;;;5.10;2.83;;;;;;;2.18;100.00;100445.28;1835155;78;21046;-67
2021/01/07 03:55:18;;;;;;;3.30;2.40;;;;;;;2.24;100.00;100442.17;1835224;78;21481;-67
2021/01/07 03:57:46;;;;;;;5.23;2.07;;;;;;;2.30;100.00;100445.37;1835029;77;20980;-67
2021/01/07 04:00:17;;;;;;;2.23;1.80;;;;;;;2.34;100.00;100460.19;1835113;78;21446;-68
2021/01/07 04:02:45;;;;;;;2.83;1.33;;;;;;;2.36;100.00;100448.47;1835099;78;21362;-67
2021/01/07 04:05:13;;;;;;;2.47;2.00;;;;;;;2.38;100.00;100440.36;1835140;78;20995;-67
2021/01/07 04:07:41;;;;;;;1.90;1.13;;;;;;;2.42;100.00;100438.67;1835070;78;20972;-66
2021/01/07 04:10:09;;;;;;;2.43;1.57;;;;;;;2.45;100.00;100430.95;1835133;77;21034;-66
2021/01/07 04:12:37;;;;;;;2.53;1.33;;;;;;;2.47;100.00;100422.34;1807328;78;21256;-67
2021/01/07 04:15:07;;;;;;;2.73;1.73;;;;;;;2.51;100.00;100418.97;1802259;79;20941;-67
2021/01/07 04:17:35;;;;;;;2.83;1.67;;;;;;;2.53;100.00;100413.88;1802366;79;21566;-67
2021/01/07 04:20:05;;;;;;;2.80;1.97;;;;;;;2.55;100.00;100409.77;1802248;79;21000;-68
2021/01/07 04:22:42;;;;;;;4.63;2.00;;;;;;;2.53;100.00;100407.20;1802402;79;20932;-67
2021/01/07 04:25:12;;;;;;;3.07;2.33;;;;;;;2.54;100.00;100406.26;1802335;78;21946;-67
2021/01/07 04:27:39;;;;;;;4.53;2.00;;;;;;;2.55;100.00;100395.97;1802265;79;21051;-67
2021/01/07 04:30:09;;;;;;;2.93;2.30;;;;;;;2.56;100.00;100390.13;1802293;79;20932;-68
2021/01/07 04:32:37;;;;;;;1.53;1.17;;;;;;;2.57;100.00;100403.37;1802343;79;21546;-67
2021/01/07 04:35:06;;;;;;;3.57;2.27;;;;;;;2.57;100.00;100426.56;1802279;79;20925;-67
2021/01/07 04:37:34;;;;;;;4.67;2.50;;;;;;;2.60;100.00;100430.31;1802286;79;22139;-66
2021/01/07 04:40:04;;;;;;;9.80;3.33;;;;;;;2.61;100.00;100416.02;1802320;79;20996;-67
2021/01/07 04:42:32;;;;;;;7.90;2.67;;;;;;;2.61;100.00;100402.18;1802336;79;21028;-67
2021/01/07 04:45:01;;;;;;;1.37;1.20;;;;;;;2.62;100.00;100397.69;1803937;77;21143;-67
2021/01/07 04:47:29;;;;;;;2.33;1.63;;;;;;;2.64;100.00;100377.94;1835110;78;20979;-67
2021/01/07 04:49:57;;;;;;;1.73;1.07;;;;;;;2.68;100.00;100366.55;1834997;78;21187;-68
2021/01/07 04:52:25;;;;;;;7.27;3.10;;;;;;;2.70;100.00;100370.45;1829981;78;21898;-67
2021/01/07 04:54:53;;;;;;;4.07;2.13;;;;;;;2.73;100.00;100398.27;1829129;77;20944;-68
2021/01/07 04:57:21;;;;;;;5.87;3.00;;;;;;;2.77;100.00;100391.73;1802348;78;20995;-68
2021/01/07 04:59:49;;;;;;;5.93;2.33;;;;;;;2.77;100.00;100379.22;1829184;77;21021;-67
2021/01/07 05:02:17;;;;;;;4.80;2.33;;;;;;;2.80;100.00;100375.48;1827987;78;21345;-67
2021/01/07 05:04:52;;;;;;;2.53;1.57;;;;;;;2.79;100.00;100371.94;1827998;78;21052;-66
2021/01/07 05:07:20;;;;;;;3.20;1.80;;;;;;;2.80;100.00;100363.47;1828075;78;20965;-67
2021/01/07 05:10:01;;;;;;;2.67;1.43;;;;;;;2.80;100.00;100350.11;1827981;78;21001;-67
2021/01/07 05:12:29;;;;;;;3.00;1.97;;;;;;;2.81;100.00;100346.45;1828586;78;21077;-67
2021/01/07 05:14:57;;;;;;;6.03;3.00;;;;;;;2.84;100.00;100348.91;1828131;78;21190;-67
2021/01/07 05:17:25;;;;;;;3.27;2.43;;;;;;;2.87;100.00;100346.02;1757733;81;21028;-67
2021/01/07 05:19:52;;;;;;;4.53;1.60;;;;;;;2.91;100.00;100353.32;1789086;78;21010;-66
2021/01/07 05:22:27;;;;;;;6.30;2.90;;;;;;;2.92;100.00;100351.88;1759389;81;21026;-67
2021/01/07 05:24:56;;;;;;;3.63;2.67;;;;;;;2.95;100.00;100370.81;1731857;81;21006;-67
2021/01/07 05:27:24;;;;;;;2.30;2.00;;;;;;;2.97;100.00;100369.72;1759465;81;21213;-67
2021/01/07 05:29:52;;;;;;;2.23;1.27;;;;;;;2.99;100.00;100359.80;1784327;80;21867;-68
2021/01/07 05:32:20;;;;;;;5.70;3.00;;;;;;;3.02;100.00;100352.03;1755332;81;21054;-66
2021/01/07 05:34:49;;;;;;;7.53;2.70;;;;;;;3.04;100.00;100353.59;1751339;81;20931;-67
2021/01/07 05:37:18;;;;;;;1.80;1.70;;;;;;;3.08;100.00;100350.70;1757871;80;21113;-67
2021/01/07 05:39:48;;;;;;;6.87;2.97;;;;;;;3.10;100.00;100353.66;1759422;81;21202;-67
2021/01/07 05:42:17;;;;;;;5.73;2.73;;;;;;;3.12;100.00;100354.88;1774058;80;21030;-67
2021/01/07 05:44:47;;;;;;;7.03;2.87;;;;;;;3.12;100.00;100349.53;1774135;80;21006;-67
2021/01/07 05:47:30;;;;;;;3.57;2.10;;;;;;;3.14;100.00;100342.25;1752469;80;21051;-67
2021/01/07 05:49:59;;;;;;;4.10;2.92;;;;;;;3.15;100.00;100342.13;1757012;81;20952;-67
2021/01/07 05:52:29;;;;;;;1.37;1.27;;;;;;;3.17;100.00;100333.97;1777209;80;21426;-68
2021/01/07 05:55:06;;;;;;;5.70;3.10;;;;;;;3.23;100.00;100334.86;1845345;76;26751;-67
2021/01/07 05:57:38;;;;;;;6.57;3.20;;;;;;;3.22;100.00;100328.67;1815430;79;20925;-66
2021/01/07 06:00:16;;;;;;;5.67;2.97;;;;;;;3.25;100.00;100334.75;1767520;81;21605;-66
2021/01/07 06:02:45;;;;;;;3.37;2.20;;;;;;;3.25;100.00;100342.27;1753910;80;21033;-68
2021/01/07 06:05:15;;;;;;;3.87;1.83;;;;;;;3.27;100.00;100329.64;1759678;81;21076;-68
2021/01/07 06:07:43;;;;;;;5.30;2.33;;;;;;;3.32;100.00;100327.47;1759645;81;20925;-67
2021/01/07 06:10:15;;;;;;;6.13;3.10;;;;;;;3.35;100.00;100328.58;1759725;81;20977;-70
2021/01/07 06:12:42;;;;;;;4.93;3.03;;;;;;;3.40;100.00;100334.43;1787180;80;21261;-68
2021/01/07 06:15:13;;;;;;;3.77;2.37;;;;;;;3.42;100.00;100329.81;1790775;80;20972;-67
2021/01/07 06:17:41;;;;;;;4.67;2.60;;;;;;;3.46;100.00;100334.44;1766336;81;21779;-67
2021/01/07 06:20:19;;;;;;;4.43;2.07;;;;;;;3.49;100.00;100327.98;1709326;82;21083;-67
2021/01/07 06:22:51;;;;;;;3.37;1.77;;;;;;;3.51;100.00;100330.08;1790998;80;21158;-67
2021/01/07 06:25:27;;;;;;;6.57;3.33;;;;;;;3.55;100.00;100323.02;1889961;76;26695;-67
2021/01/07 06:27:55;;;;;;;3.23;2.37;;;;;;;3.52;100.00;100326.42;1860756;77;21029;-67
2021/01/07 06:30:31;;;;;;;2.63;2.03;;;;;;;3.52;100.00;100327.27;1860862;77;21375;-68
2021/01/07 06:33:09;;;;;;;6.10;3.07;;;;;;;3.54;100.00;100323.14;1860808;77;21041;-67
2021/01/07 06:35:41;;;;;;;9.73;3.40;;;;;;;3.55;100.00;100320.34;1860460;77;20896;-67
2021/01/07 06:38:16;;;;;;;6.03;3.00;;;;;;;3.57;100.00;100321.57;1860907;77;20957;-67
2021/01/07 06:40:44;;;;;;;5.70;2.63;;;;;;;3.58;100.00;100328.14;1856264;77;20966;-67
2021/01/07 06:43:15;;;;;;;2.20;1.83;;;;;;;3.57;100.00;100314.39;1860750;77;21290;-68
2021/01/07 06:45:52;;;;;;;2.70;1.80;;;;;;;3.57;100.00;100313.05;1865902;76;20982;-67
2021/01/07 06:48:33;;;;;;;2.83;1.80;;;;;;;3.58;100.00;100317.94;1735679;82;21007;-67
2021/01/07 06:51:08;;;;;;;2.50;1.80;;;;;;;3.63;100.00;100304.19;1845312;76;27174;-68
2021/01/07 06:53:37;;;;;;;6.53;2.30;;;;;;;3.58;100.00;100304.57;1810341;79;20920;-68
2021/01/07 06:56:15;;;;;;;3.30;2.10;;;;;;;3.58;100.00;100306.75;1815204;79;21176;-67
2021/01/07 06:58:44;;;;;;;1.53;1.43;;;;;;;3.59;100.00;100311.60;1811761;79;21109;-66
2021/01/07 07:01:17;;;;;;;4.63;2.80;;;;;;;3.61;100.00;100305.64;1815189;79;21044;-67
2021/01/07 07:03:48;;;;;;;3.67;1.90;;;;;;;3.63;100.00;100305.53;1815297;79;20896;-68
2021/01/07 07:06:18;;;;;;;4.53;2.27;;;;;;;3.66;100.00;100307.48;1728241;82;20983;-66
2021/01/07 07:08:46;;;;;;;4.53;2.77;;;;;;;3.67;100.00;100306.52;1727969;83;21208;-67
2021/01/07 07:11:34;;;;;;;3.90;2.00;;;;;;;3.69;100.00;100305.06;1727566;83;21057;-67
2021/01/07 07:14:05;;;;;;;4.87;2.50;;;;;;;3.71;100.00;100305.79;1726367;83;21029;-67
2021/01/07 07:16:41;;;;;;;4.07;2.10;;;;;;;3.74;100.00;100298.37;1844943;76;26749;-67
2021/01/07 07:19:09;;;;;;;2.33;1.87;;;;;;;3.70;100.00;100297.39;1810385;78;21000;-67
2021/01/07 07:21:37;;;;;;;5.17;2.33;;;;;;;3.71;100.00;100300.44;1815289;79;21188;-67
2021/01/07 07:24:10;;;;;;;3.07;2.37;;;;;;;3.71;100.00;100297.77;1815126;79;21043;-67
2021/01/07 07:26:40;;;;;;;;;;;;;;;3.72;100.00;100299.45;1818035;79;21581;-66
2021/01/07 07:29:13;;;;;;;3.93;2.97;;;;;;;3.74;100.00;100305.06;1746389;81;20630;-67
2021/01/07 07:31:48;;;;;;;5.33;2.83;;;;;;;3.80;100.00;100298.37;1845313;76;26715;-67
2021/01/07 07:34:16;;;;;;;3.33;2.13;;;;;;;3.79;100.00;100287.33;1815246;77;21011;-66
2021/01/07 07:36:45;;;;;;;4.27;2.67;;;;;;;3.82;100.00;100293.75;1815221;79;21636;-67
2021/01/07 07:39:13;;;;;;;2.13;1.97;;;;;;;3.85;100.00;100284.16;1815114;79;21008;-67
2021/01/07 07:41:45;;;;;;;3.77;2.53;;;;;;;3.86;100.00;100281.85;1815236;79;20988;-67
2021/01/07 07:44:15;;;;;;;2.67;2.07;;;;;;;3.89;100.00;100289.61;1763411;81;21047;-67
2021/01/07 07:46:43;;;;;;;4.10;2.77;;;;;;;3.90;100.00;100293.16;1755857;81;21020;-67
2021/01/07 07:49:12;;;;;;;6.17;2.70;;;;;;;3.92;100.00;100285.86;1753639;81;21357;-69
2021/01/07 07:51:41;;;;;;;2.47;1.70;;;;;;;3.92;100.00;100280.51;1753667;80;21156;-68
2021/01/07 07:54:10;;;;;;;1.93;1.53;;;;;;;3.94;100.00;100277.22;1753789;81;20953;-68
2021/01/07 07:56:39;;;;;;;2.37;1.30;;;;;;;3.97;100.00;100276.48;1753770;80;20985;-68
2021/01/07 07:59:10;;;;;;;3.73;2.13;;;;;;;3.99;100.00;100279.05;1753861;81;21629;-68
2021/01/07 08:01:47;;;;;;;2.83;2.27;;;;;;;4.03;100.00;100272.95;1753624;81;21191;-67
2021/01/07 08:04:18;;;;;;;2.90;2.23;;;;;;;4.07;100.00;100276.61;1749035;81;21592;-67
2021/01/07 08:06:47;;;;;;;4.37;2.20;;;;;;;4.10;100.00;100264.80;1753745;81;21041;-67
2021/01/07 08:09:19;;;;;;;3.70;2.30;;;;;;;4.14;100.00;100264.90;1753700;81;21017;-67
2021/01/07 08:11:54;;;;;;;2.90;2.10;;;;;;;4.21;100.00;100257.23;1889828;76;26635;-67
2021/01/07 08:14:28;;;;;;;5.70;2.07;;;;;;;4.20;100.00;100260.41;1864100;76;20922;-67
2021/01/07 08:16:58;;;;;;;1.90;1.80;;;;;;;4.23;100.00;100263.30;1796506;79;21384;-66
2021/01/07 08:19:34;;;;;;;2.30;1.60;;;;;;;4.25;100.00;100255.53;1819283;78;21072;-67
2021/01/07 08:22:03;;;;;;;3.27;2.10;;;;;;;4.27;100.00;100247.37;1796514;79;20937;-69
2021/01/07 08:24:32;;;;;;;4.20;2.33;;;;;;;4.31;100.00;100246.14;1820098;78;21080;-67
2021/01/07 08:27:16;;;;;;;4.07;2.13;;;;;;;4.31;100.00;100251.00;1820204;78;21071;-67
2021/01/07 08:29:49;;;;;;;3.33;2.17;;;;;;;4.33;100.00;100240.17;1796547;79;22669;-68
2021/01/07 08:32:22;;;;;;;4.50;2.47;;;;;;;4.35;100.00;100244.41;1752850;81;21036;-68
2021/01/07 08:34:50;;;;;;;4.40;2.40;;;;;;;4.36;100.00;100246.62;1752181;81;21092;-67
2021/01/07 08:37:23;;;;;;;4.83;2.17;;;;;;;4.37;100.00;100233.58;1728156;81;21085;-68
2021/01/07 08:39:51;;;;;;;5.53;2.77;;;;;;;4.37;100.00;100238.93;1752322;81;21060;-67
2021/01/07 08:42:18;;;;;;;3.37;2.03;;;;;;;4.38;100.00;100219.23;1752836;81;21425;-68
2021/01/07 08:44:48;;;;;;;6.10;3.47;;;;;;;4.41;100.00;100221.66;1752919;81;21076;-68
2021/01/07 08:47:24;;;;;;;3.87;2.20;;;;;;;4.43;100.00;100218.36;1713459;82;21056;-68
2021/01/07 08:50:19;;;;;;;2.23;1.50;;;;;;;4.45;100.00;100205.69;1744905;82;21819;-70
2021/01/07 08:52:54;;;;;;;5.37;2.05;;;;;;;4.48;100.00;100196.07;1804948;79;26685;-68
2021/01/07 08:55:51;;;;;;;3.17;2.10;;;;;;;4.50;100.00;100199.97;1804802;79;21183;-68
2021/01/07 08:58:25;;;;;;;3.00;2.00;;;;;;;4.52;100.00;100196.16;1804659;79;20985;-69
2021/01/07 09:00:54;;;;;;;3.10;1.83;;;;;;;4.55;100.00;100187.88;1769123;79;21025;-68
2021/01/07 09:03:22;;;;;;;7.13;2.60;;;;;;;4.58;100.00;100196.63;1691051;84;21021;-68
2021/01/07 09:06:06;;;;;;;3.20;2.13;;;;;;;4.61;100.00;100191.87;1711689;83;21018;-68
2021/01/07 09:08:34;;;;;;;2.93;2.13;;;;;;;4.63;100.00;100181.88;1710986;82;22399;-69
2021/01/07 09:11:07;;;;;;;2.77;1.77;;;;;;;4.66;100.00;100180.28;1718561;82;21458;-69
2021/01/07 09:13:35;;;;;;;2.50;1.47;;;;;;;4.70;100.00;100181.71;1788737;80;21010;-69
2021/01/07 09:16:13;;;;;;;3.30;2.53;;;;;;;4.75;100.00;100175.48;1750806;82;21783;-68
2021/01/07 09:18:41;;;;;;;4.33;2.53;;;;;;;4.79;100.00;100173.38;1788644;80;21129;-69
2021/01/07 09:21:15;;;;;;;4.67;2.90;;;;;;;4.82;100.00;100165.59;1751939;81;22165;-69
2021/01/07 09:23:47;;;;;;;6.47;3.40;;;;;;;4.82;100.00;100157.55;1786937;80;21032;-69
2021/01/07 09:26:30;;;;;;;5.97;3.63;;;;;;;4.83;100.00;100149.86;1796005;79;21060;-68
2021/01/07 09:28:58;;;;;;;7.23;2.90;;;;;;;4.83;100.00;100143.16;1833569;76;21007;-69
2021/01/07 09:31:26;;;;;;;6.43;3.47;;;;;;;4.83;100.00;100148.02;1873978;76;20973;-69
2021/01/07 09:33:53;;;;;;;7.00;3.70;;;;;;;4.82;100.00;100130.27;1779511;80;21387;-69
2021/01/07 09:36:25;;;;;;;5.43;2.93;;;;;;;4.85;100.00;100134.50;1818587;78;21584;-68
2021/01/07 09:38:53;;;;;;;6.53;2.90;;;;;;;4.85;100.00;100127.33;1825286;78;21010;-68
2021/01/07 09:41:21;;;;;;;7.67;3.63;;;;;;;4.86;100.00;100132.19;1825503;78;20927;-67
2021/01/07 09:43:49;;;;;;;3.10;2.00;;;;;;;4.86;100.00;100130.34;1825477;78;21059;-69
2021/01/07 09:46:16;;;;;;;3.23;2.00;;;;;;;4.86;100.00;100128.17;1823578;78;21194;-69
2021/01/07 09:48:45;;;;;;;5.50;2.67;;;;;;;4.85;100.00;100116.61;1822279;78;20998;-68
2021/01/07 09:51:13;;;;;;;4.50;2.43;;;;;;;4.86;100.00;100106.73;1822362;78;21006;-70
2021/01/07 09:53:41;;;;;;;4.47;2.50;;;;;;;4.86;100.00;100110.75;1822294;78;20951;-69
2021/01/07 09:56:09;;;;;;;4.60;2.53;;;;;;;4.88;100.00;100111.47;1822290;78;20987;-68
2021/01/07 09:58:37;;;;;;;5.37;2.73;;;;;;;4.90;100.00;100091.58;1822464;78;21380;-68
2021/01/07 10:01:05;;;;;;;4.23;2.77;;;;;;;4.92;100.00;100082.07;1822386;78;20990;-68
2021/01/07 10:03:32;;;;;;;7.23;2.63;;;;;;;4.92;100.00;100057.95;1822411;78;20931;-68
2021/01/07 10:06:01;;;;;;;3.90;2.53;;;;;;;4.89;100.00;100057.75;1822330;78;20968;-67
2021/01/07 10:08:29;;;;;;;2.43;2.13;;;;;;;4.87;100.00;100053.48;1822334;78;21021;-67
2021/01/07 10:10:57;;;;;;;7.20;2.90;;;;;;;4.87;100.00;100044.11;1819056;78;21376;-68
2021/01/07 10:13:24;;;;;;;2.37;2.13;;;;;;;4.86;100.00;100047.79;1828724;78;21031;-68
2021/01/07 10:15:52;;;;;;;4.10;2.47;;;;;;;4.86;100.00;100049.12;1810812;79;21009;-69
2021/01/07 10:18:20;;;;;;;3.70;2.20;;;;;;;4.84;100.00;100064.00;1796179;79;21028;-68
2021/01/07 10:20:50;;;;;;;4.03;2.50;;;;;;;4.82;100.00;100065.13;1810853;79;21013;-68
2021/01/07 10:23:18;;;;;;;3.33;2.33;;;;;;;4.83;100.00;100055.59;1796062;79;21256;-68
2021/01/07 10:25:46;;;;;;;6.13;3.20;;;;;;;4.82;100.00;100048.55;1786043;79;21080;-68
2021/01/07 10:28:15;;;;;;;6.03;3.00;;;;;;;4.83;100.00;100042.69;1770399;79;20928;-68
2021/01/07 10:30:45;;;;;;;4.20;2.47;;;;;;;4.82;100.00;100024.44;1810778;79;20919;-68
2021/01/07 10:33:15;;;;;;;5.43;2.80;;;;;;;4.82;100.00;100024.44;1770285;80;20964;-68
2021/01/07 10:35:43;;;;;;;2.90;2.27;;;;;;;4.83;100.00;100015.40;1810837;79;21270;-68
2021/01/07 10:38:12;;;;;;;5.60;2.83;;;;;;;4.83;100.00;100012.72;1796104;79;20947;-67
2021/01/07 10:40:44;;;;;;;3.70;2.03;;;;;;;4.84;100.00;100002.38;1801521;79;20965;-67
2021/01/07 10:43:13;;;;;;;4.37;2.58;;;;;;;4.87;100.00;99983.36;1770961;80;21024;-67
2021/01/07 10:45:41;;;;;;;4.80;2.43;;;;;;;4.87;100.00;99983.36;1784718;79;20982;-68
2021/01/07 10:48:16;;;;;;;5.10;2.60;;;;;;;4.89;100.00;99968.48;1806283;79;21366;-68
2021/01/07 10:50:44;;;;;;;2.87;1.90;;;;;;;4.91;100.00;99962.50;1806146;79;21025;-68
2021/01/07 10:53:43;;;;;;;2.20;2.00;;;;;;;4.91;100.00;99951.28;1754125;79;21006;-68
2021/01/07 10:56:25;;;;;;;2.23;1.37;;;;;;;4.94;100.00;99964.91;1728687;82;20978;-69
2021/01/07 10:59:11;;;;;;;4.20;2.07;;;;;;;4.98;100.00;99956.11;1722796;83;20982;-69
2021/01/07 11:02:25;;;;;;;4.07;1.97;;;;;;;4.98;100.00;99956.94;1719614;83;21215;-67
2021/01/07 11:05:20;;;;;;;3.40;1.93;;;;;;;5.00;100.00;99950.95;1722738;83;21081;-68
2021/01/07 11:08:08;;;;;;;3.23;2.10;;;;;;;5.02;100.00;99941.44;1722887;83;20977;-69
2021/01/07 11:10:36;;;;;;;2.37;1.93;;;;;;;5.04;100.00;99932.77;1722878;81;21016;-68
2021/01/07 11:13:07;;;;;;;2.40;1.80;;;;;;;5.06;100.00;99920.06;1728901;83;20992;-68
2021/01/07 11:15:36;;;;;;;3.17;2.43;;;;;;;5.08;100.00;99909.58;1728899;83;21611;-67
2021/01/07 11:18:10;;;;;;;3.17;2.00;;;;;;;5.11;100.00;99902.58;1728719;83;21006;-68
2021/01/07 11:20:42;;;;;;;4.57;2.80;;;;;;;5.15;100.00;99907.16;1728779;83;20992;-68
2021/01/07 11:23:11;;;;;;;3.20;1.82;;;;;;;5.19;100.00;99896.54;1729009;83;21059;-69
2021/01/07 11:25:39;;;;;;;3.37;2.27;;;;;;;5.21;100.00;99887.02;1728848;83;21035;-67
2021/01/07 11:28:07;;;;;;;1.73;1.53;;;;;;;5.21;100.00;99875.80;1728818;83;21147;-69
2021/01/07 11:30:37;;;;;;;3.20;2.23;;;;;;;5.24;100.00;99860.78;1728781;83;21053;-68
2021/01/07 11:33:05;;;;;;;1.60;1.50;;;;;;;5.27;100.00;99853.77;1728855;81;21039;-69
2021/01/07 11:35:33;;;;;;;3.67;2.10;;;;;;;5.30;100.00;99851.31;1728797;83;20960;-68
2021/01/07 11:38:03;;;;;;;2.93;2.10;;;;;;;5.32;100.00;99848.83;1703709;83;21019;-68
2021/01/07 11:40:55;;;;;;;3.90;2.53;;;;;;;5.35;100.00;99846.38;1728815;83;21265;-69
2021/01/07 11:43:54;;;;;;;2.63;2.00;;;;;;;5.36;100.00;99842.69;1728818;83;21039;-67
2021/01/07 11:46:22;;;;;;;4.43;2.13;;;;;;;5.41;100.00;99834.23;1744236;81;20921;-68